createdAt,value
2022-09-26T00:01:36.543Z,2.40
2022-09-26T00:04:16.215Z,2.20
2022-09-26T00:06:43.450Z,2.28
2022-09-26T00:09:10.550Z,2.20
2022-09-26T00:11:37.659Z,2.53
2022-09-26T00:14:07.681Z,2.40
2022-09-26T00:16:35.379Z,2.17
2022-09-26T00:19:02.969Z,2.13
2022-09-26T00:21:30.473Z,2.23
2022-09-26T00:23:58.951Z,2.10
2022-09-26T00:26:27.285Z,2.00
2022-09-26T00:28:54.992Z,2.08
2022-09-26T00:31:34.013Z,2.10
2022-09-26T00:34:01.291Z,2.03
2022-09-26T00:36:37.349Z,1.50
2022-09-26T00:39:05.327Z,2.08
2022-09-26T00:41:32.203Z,2.22
2022-09-26T00:43:59.176Z,2.35
2022-09-26T00:46:40.544Z,2.40
2022-09-26T00:49:17.159Z,2.42
2022-09-26T00:51:48.381Z,2.85
2022-09-26T00:54:17.596Z,2.47
2022-09-26T00:56:47.383Z,2.60
2022-09-26T00:59:25.611Z,2.50
2022-09-26T01:01:56.097Z,2.45
2022-09-26T01:04:28.405Z,2.30
2022-09-26T01:07:01.746Z,2.35
2022-09-26T01:09:30.338Z,2.22
2022-09-26T01:11:59.930Z,2.27
2022-09-26T01:14:27.648Z,1.88
2022-09-26T01:16:56.314Z,2.17
2022-09-26T01:19:54.127Z,2.00
2022-09-26T01:22:42.121Z,2.40
2022-09-26T01:25:19.393Z,2.17
2022-09-26T01:28:06.730Z,2.40
2022-09-26T01:30:44.336Z,2.20
2022-09-26T01:33:42.768Z,2.40
2022-09-26T01:36:22.778Z,2.55
2022-09-26T01:38:59.295Z,2.10
2022-09-26T01:41:50.532Z,2.78
2022-09-26T01:44:51.841Z,2.70
2022-09-26T01:47:26.047Z,2.70
2022-09-26T01:50:21.931Z,2.15
2022-09-26T01:53:01.679Z,2.47
2022-09-26T01:55:39.977Z,2.47
2022-09-26T01:58:12.787Z,2.30
2022-09-26T02:00:43.294Z,2.60
2022-09-26T02:03:15.487Z,2.80
2022-09-26T02:05:45.500Z,2.13
2022-09-26T02:08:43.979Z,2.40
2022-09-26T02:11:15.186Z,2.78
2022-09-26T02:13:47.510Z,2.95
2022-09-26T02:16:39.902Z,3.08
2022-09-26T02:19:15.299Z,2.93
2022-09-26T02:21:44.125Z,2.78
2022-09-26T02:24:11.483Z,2.70
2022-09-26T02:26:38.735Z,2.60
2022-09-26T02:29:06.858Z,3.00
2022-09-26T02:31:38.685Z,2.60
2022-09-26T02:34:06.599Z,2.40
2022-09-26T02:36:34.802Z,3.17
2022-09-26T02:39:03.511Z,2.80
2022-09-26T02:41:57.559Z,3.42
2022-09-26T02:44:35.234Z,2.73
2022-09-26T02:47:27.350Z,3.17
2022-09-26T02:50:18.596Z,2.72
2022-09-26T02:52:49.103Z,3.15
2022-09-26T02:55:35.523Z,2.95
2022-09-26T02:58:12.165Z,3.00
2022-09-26T03:00:44.955Z,2.92
2022-09-26T03:03:32.547Z,3.88
2022-09-26T03:06:02.065Z,3.17
2022-09-26T03:08:36.599Z,3.60
2022-09-26T03:11:06.407Z,3.27
2022-09-26T03:13:35.942Z,4.03
2022-09-26T03:16:03.454Z,3.03
2022-09-26T03:18:38.548Z,3.15
2022-09-26T03:21:06.940Z,3.15
2022-09-26T03:23:34.359Z,3.07
2022-09-26T03:26:11.387Z,3.00
2022-09-26T03:28:47.417Z,3.30
2022-09-26T03:31:14.886Z,3.00
2022-09-26T03:34:01.766Z,3.28
2022-09-26T03:36:32.609Z,3.20
2022-09-26T03:39:01.620Z,3.10
2022-09-26T03:41:46.597Z,3.47
2022-09-26T03:44:19.058Z,3.42
2022-09-26T03:47:05.026Z,3.60
2022-09-26T03:49:36.424Z,3.13
2022-09-26T03:52:03.951Z,3.67
2022-09-26T03:54:31.938Z,3.53
2022-09-26T03:56:58.778Z,3.13
2022-09-26T03:59:25.931Z,3.13
2022-09-26T04:01:52.921Z,2.93
2022-09-26T04:04:19.823Z,2.95
2022-09-26T04:06:47.558Z,3.25
2022-09-26T04:09:17.646Z,2.50
2022-09-26T04:11:51.402Z,3.35
2022-09-26T04:14:18.654Z,3.03
2022-09-26T04:16:49.222Z,3.08
2022-09-26T04:19:39.765Z,3.00
2022-09-26T04:22:10.128Z,3.00
2022-09-26T04:24:37.921Z,2.90
2022-09-26T04:27:06.560Z,2.30
2022-09-26T04:29:33.791Z,2.50
2022-09-26T04:32:36.015Z,3.08
2022-09-26T04:35:21.632Z,2.30
2022-09-26T04:37:50.705Z,3.10
2022-09-26T04:40:17.748Z,2.00
2022-09-26T04:42:58.922Z,2.08
2022-09-26T04:45:26.187Z,2.58
2022-09-26T04:47:53.575Z,2.33
2022-09-26T04:50:26.598Z,2.28
2022-09-26T04:53:07.034Z,2.63
2022-09-26T04:55:39.244Z,2.90
2022-09-26T04:58:06.075Z,2.53
2022-09-26T05:00:33.721Z,2.40
2022-09-26T05:03:05.108Z,2.70
2022-09-26T05:05:33.864Z,2.40
2022-09-26T05:08:00.865Z,2.25
2022-09-26T05:10:28.716Z,2.45
2022-09-26T05:13:00.944Z,2.35
2022-09-26T05:15:27.882Z,2.55
2022-09-26T05:17:59.517Z,2.20
2022-09-26T05:20:29.470Z,2.67
2022-09-26T05:22:59.398Z,2.22
2022-09-26T05:25:47.940Z,2.80
2022-09-26T05:28:15.588Z,2.47
2022-09-26T05:30:43.458Z,2.10
2022-09-26T05:33:13.226Z,2.30
2022-09-26T05:35:43.214Z,2.20
2022-09-26T05:38:10.097Z,2.75
2022-09-26T05:40:59.298Z,2.80
2022-09-26T05:43:30.535Z,2.30
2022-09-26T05:45:59.460Z,2.65
2022-09-26T05:48:32.274Z,2.78
2022-09-26T05:51:12.675Z,2.28
2022-09-26T05:53:44.693Z,2.40
2022-09-26T05:56:18.834Z,3.47
2022-09-26T05:59:09.303Z,2.28
2022-09-26T06:02:15.226Z,2.50
2022-09-26T06:05:14.611Z,2.45
2022-09-26T06:08:01.924Z,2.33
2022-09-26T06:10:36.388Z,2.30
2022-09-26T06:13:05.011Z,2.60
2022-09-26T06:15:38.223Z,3.00
2022-09-26T06:18:05.680Z,2.55
2022-09-26T06:20:33.505Z,2.53
2022-09-26T06:23:01.848Z,2.40
2022-09-26T06:25:29.466Z,2.53
2022-09-26T06:28:00.417Z,2.97
2022-09-26T06:30:28.428Z,2.65
2022-09-26T06:33:03.862Z,3.10
2022-09-26T06:36:06.695Z,2.27
2022-09-26T06:38:37.094Z,2.75
2022-09-26T06:41:07.529Z,2.47
2022-09-26T06:43:35.073Z,2.35
2022-09-26T06:46:31.530Z,2.30
2022-09-26T06:49:11.825Z,2.13
2022-09-26T06:52:02.539Z,2.30
2022-09-26T06:54:29.531Z,2.65
2022-09-26T06:56:56.593Z,2.38
2022-09-26T06:59:23.578Z,2.38
2022-09-26T07:01:59.218Z,2.57
2022-09-26T07:04:49.557Z,2.70
2022-09-26T07:07:20.928Z,2.63
2022-09-26T07:09:47.807Z,1.90
2022-09-26T07:12:37.817Z,2.38
2022-09-26T07:15:05.100Z,2.23
2022-09-26T07:17:32.985Z,2.42
2022-09-26T07:20:03.063Z,2.58
2022-09-26T07:22:53.026Z,2.40
2022-09-26T07:25:20.449Z,2.90
2022-09-26T07:27:52.078Z,2.47
2022-09-26T07:30:23.499Z,2.53
2022-09-26T07:33:03.167Z,2.50
2022-09-26T07:36:01.893Z,2.65
2022-09-26T07:38:31.310Z,2.65
2022-09-26T07:41:00.903Z,2.60
2022-09-26T07:43:53.748Z,2.60
2022-09-26T07:46:34.627Z,2.45
2022-09-26T07:49:20.219Z,2.67
2022-09-26T07:52:07.876Z,2.80
2022-09-26T07:54:45.852Z,2.30
2022-09-26T07:57:39.703Z,2.20
2022-09-26T08:00:22.993Z,2.53
2022-09-26T08:03:03.577Z,3.03
2022-09-26T08:05:32.359Z,2.28
2022-09-26T08:07:59.511Z,2.50
2022-09-26T08:10:49.344Z,2.50
2022-09-26T08:13:39.051Z,2.53
2022-09-26T08:16:32.155Z,2.15
2022-09-26T08:19:02.418Z,2.35
2022-09-26T08:21:29.387Z,2.00
2022-09-26T08:23:57.788Z,2.35
2022-09-26T08:26:44.778Z,2.17
2022-09-26T08:29:19.477Z,2.08
2022-09-26T08:31:49.536Z,2.60
2022-09-26T08:34:19.270Z,2.30
2022-09-26T08:37:07.956Z,2.38
2022-09-26T08:39:48.348Z,2.30
2022-09-26T08:43:04.413Z,2.25
2022-09-26T08:46:39.457Z,2.80
2022-09-26T08:49:29.649Z,2.43
2022-09-26T08:52:01.374Z,2.42
2022-09-26T08:54:36.201Z,3.40
2022-09-26T08:57:14.065Z,2.65
2022-09-26T08:59:43.727Z,2.30
2022-09-26T09:02:33.331Z,2.60
2022-09-26T09:05:17.771Z,2.38
2022-09-26T09:07:52.392Z,2.72
2022-09-26T09:10:38.901Z,2.80
2022-09-26T09:13:59.947Z,3.13
2022-09-26T09:17:07.518Z,2.83
2022-09-26T09:20:03.749Z,2.85
2022-09-26T09:23:10.869Z,2.83
2022-09-26T09:27:52.270Z,2.50
2022-09-26T09:29:19.242Z,2.55
2022-09-26T09:32:06.067Z,2.80
2022-09-26T09:35:02.263Z,2.63
2022-09-26T09:37:52.075Z,2.85
2022-09-26T09:40:44.493Z,2.35
2022-09-26T09:43:26.787Z,2.63
2022-09-26T09:45:59.141Z,2.67
2022-09-26T09:48:28.162Z,2.80
2022-09-26T09:51:39.250Z,3.17
2022-09-26T09:54:25.296Z,2.80
2022-09-26T09:57:10.537Z,3.08
2022-09-26T09:59:56.002Z,2.80
2022-09-26T10:02:51.497Z,3.05
2022-09-26T10:05:42.007Z,3.55
2022-09-26T10:08:19.547Z,3.35
2022-09-26T10:11:26.791Z,3.20
2022-09-26T10:14:03.375Z,2.43
2022-09-26T10:17:11.222Z,3.08
2022-09-26T10:19:45.182Z,2.83
2022-09-26T10:22:37.881Z,3.17
2022-09-26T10:25:15.991Z,3.13
2022-09-26T10:27:51.761Z,3.30
2022-09-26T10:30:18.730Z,3.00
2022-09-26T10:32:56.527Z,3.17
2022-09-26T10:35:43.977Z,2.97
2022-09-26T10:38:29.051Z,3.53
2022-09-26T10:41:23.622Z,2.70
2022-09-26T10:43:55.209Z,3.35
2022-09-26T10:46:45.551Z,3.05
2022-09-26T10:49:43.223Z,3.60
2022-09-26T10:53:05.317Z,3.38
2022-09-26T10:55:47.631Z,3.10
2022-09-26T10:58:24.209Z,3.30
2022-09-26T11:00:54.780Z,3.45
2022-09-26T11:03:32.942Z,3.40
2022-09-26T11:06:27.872Z,2.88
2022-09-26T11:09:03.873Z,3.57
2022-09-26T11:11:52.537Z,3.53
2022-09-26T11:14:32.807Z,3.58
2022-09-26T11:17:11.700Z,3.00
2022-09-26T11:19:55.039Z,3.38
2022-09-26T11:22:44.014Z,3.70
2022-09-26T11:25:31.215Z,3.00
2022-09-26T11:28:12.759Z,3.33
2022-09-26T11:31:20.428Z,3.30
2022-09-26T11:33:59.391Z,3.40
2022-09-26T11:37:08.399Z,3.30
2022-09-26T11:40:13.349Z,3.50
2022-09-26T11:42:57.554Z,3.38
2022-09-26T11:46:04.494Z,4.25
2022-09-26T11:49:11.280Z,3.90
2022-09-26T11:52:10.459Z,3.53
2022-09-26T11:54:58.993Z,3.85
2022-09-26T11:57:57.784Z,4.50
2022-09-26T12:00:34.369Z,5.10
2022-09-26T12:03:39.287Z,5.13
2022-09-26T12:06:21.758Z,4.77
2022-09-26T12:09:34.921Z,5.00
2022-09-26T12:12:17.407Z,4.95
2022-09-26T12:15:08.544Z,4.32
2022-09-26T12:18:07.367Z,4.95
2022-09-26T12:21:05.368Z,4.03
2022-09-26T12:23:54.304Z,4.57
2022-09-26T12:26:36.221Z,4.72
2022-09-26T12:29:19.466Z,4.80
2022-09-26T12:32:03.245Z,4.32
2022-09-26T12:34:56.216Z,3.83
2022-09-26T12:37:53.266Z,3.70
2022-09-26T12:40:42.136Z,4.60
2022-09-26T12:43:46.675Z,3.83
2022-09-26T12:46:47.522Z,4.18
2022-09-26T12:49:26.483Z,4.20
2022-09-26T12:52:18.121Z,3.90
2022-09-26T12:55:21.993Z,3.33
2022-09-26T12:57:55.291Z,3.15
2022-09-26T13:00:23.223Z,3.47
2022-09-26T13:03:09.862Z,2.97
2022-09-26T13:06:06.279Z,2.97
2022-09-26T13:08:58.587Z,3.13
2022-09-26T13:11:33.226Z,2.70
2022-09-26T13:14:15.242Z,2.92
2022-09-26T13:16:49.077Z,2.87
2022-09-26T13:19:41.299Z,3.00
2022-09-26T13:22:45.342Z,3.10
2022-09-26T13:25:21.781Z,2.88
2022-09-26T13:28:24.228Z,3.58
2022-09-26T13:31:11.013Z,3.47
2022-09-26T13:34:16.393Z,3.53
2022-09-26T13:36:45.028Z,3.42
2022-09-26T13:39:39.497Z,3.03
2022-09-26T13:42:31.733Z,3.35
2022-09-26T13:45:16.241Z,3.40
2022-09-26T13:47:59.678Z,3.17
2022-09-26T13:50:38.537Z,3.10
2022-09-26T13:53:18.745Z,2.80
2022-09-26T13:55:46.125Z,2.53
2022-09-26T13:58:43.304Z,2.20
2022-09-26T14:01:27.511Z,2.80
2022-09-26T14:04:32.530Z,3.10
2022-09-26T14:07:24.473Z,3.03
2022-09-26T14:10:12.431Z,2.78
2022-09-26T14:13:03.916Z,2.83
2022-09-26T14:15:49.621Z,2.60
2022-09-26T14:19:00.355Z,3.03
2022-09-26T14:21:33.601Z,2.72
2022-09-26T14:24:38.925Z,2.95
2022-09-26T14:27:12.538Z,3.00
2022-09-26T14:29:39.538Z,3.65
2022-09-26T14:32:12.073Z,3.40
2022-09-26T14:34:49.063Z,3.80
2022-09-26T14:37:22.522Z,3.58
2022-09-26T14:39:52.159Z,3.40
2022-09-26T14:42:48.294Z,3.10
2022-09-26T14:45:20.530Z,3.80
2022-09-26T14:48:20.079Z,3.97
2022-09-26T14:51:01.675Z,4.57
2022-09-26T14:53:47.416Z,4.00
2022-09-26T14:56:27.314Z,4.13
2022-09-26T14:59:14.419Z,4.95
2022-09-26T15:01:42.943Z,5.50
2022-09-26T15:04:20.561Z,5.57
2022-09-26T15:06:52.989Z,5.40
2022-09-26T15:09:53.620Z,4.95
2022-09-26T15:12:40.189Z,5.22
2022-09-26T15:15:16.197Z,5.22
2022-09-26T15:17:56.176Z,5.70
2022-09-26T15:20:25.404Z,4.93
2022-09-26T15:22:57.380Z,4.25
2022-09-26T15:25:31.411Z,4.13
2022-09-26T15:28:00.694Z,3.60
2022-09-26T15:30:37.406Z,3.58
2022-09-26T15:33:04.825Z,3.40
2022-09-26T15:35:32.998Z,3.38
2022-09-26T15:38:09.769Z,3.05
2022-09-26T15:40:37.486Z,4.13
2022-09-26T15:43:10.644Z,4.25
2022-09-26T15:45:46.667Z,2.93
2022-09-26T15:48:33.925Z,2.45
2022-09-26T15:51:11.229Z,2.90
2022-09-26T15:53:40.609Z,2.58
2022-09-26T15:56:17.065Z,3.10
2022-09-26T15:58:55.146Z,2.50
2022-09-26T16:01:25.699Z,2.70
2022-09-26T16:03:55.703Z,3.40
2022-09-26T16:06:25.741Z,3.40
2022-09-26T16:09:02.703Z,4.03
2022-09-26T16:11:30.159Z,3.70
2022-09-26T16:13:58.101Z,3.13
2022-09-26T16:16:31.721Z,3.72
2022-09-26T16:19:04.755Z,3.40
2022-09-26T16:21:36.473Z,4.10
2022-09-26T16:24:28.913Z,4.00
2022-09-26T16:26:56.597Z,3.80
2022-09-26T16:29:34.071Z,3.45
2022-09-26T16:32:05.119Z,3.72
2022-09-26T16:34:32.418Z,4.70
2022-09-26T16:36:59.638Z,4.53
2022-09-26T16:39:31.345Z,5.10
2022-09-26T16:42:16.670Z,4.03
2022-09-26T16:44:52.465Z,3.42
2022-09-26T16:47:33.162Z,4.18
2022-09-26T16:50:18.851Z,4.67
2022-09-26T16:52:48.670Z,4.13
2022-09-26T16:55:15.637Z,4.07
2022-09-26T16:58:00.298Z,3.70
2022-09-26T17:00:52.130Z,4.25
2022-09-26T17:03:32.364Z,3.53
2022-09-26T17:06:06.612Z,2.53
2022-09-26T17:08:34.029Z,2.95
2022-09-26T17:11:04.361Z,2.30
2022-09-26T17:13:36.184Z,2.55
2022-09-26T17:16:04.992Z,2.23
2022-09-26T17:18:34.340Z,2.30
2022-09-26T17:21:02.318Z,2.38
2022-09-26T17:23:40.073Z,2.58
2022-09-26T17:26:23.788Z,2.20
2022-09-26T17:28:53.315Z,1.90
2022-09-26T17:31:20.703Z,1.63
2022-09-26T17:33:51.508Z,2.10
2022-09-26T17:36:25.523Z,2.35
2022-09-26T17:38:53.499Z,2.70
2022-09-26T17:41:23.194Z,2.30
2022-09-26T17:44:01.267Z,2.80
2022-09-26T17:46:28.928Z,2.92
2022-09-26T17:48:56.600Z,2.63
2022-09-26T17:51:24.244Z,3.35
2022-09-26T17:53:52.403Z,2.97
2022-09-26T17:56:20.064Z,2.80
2022-09-26T17:58:49.276Z,2.65
2022-09-26T18:01:23.351Z,2.58
2022-09-26T18:03:54.492Z,3.60
2022-09-26T18:06:26.472Z,4.07
2022-09-26T18:08:55.054Z,4.35
2022-09-26T18:11:23.054Z,3.15
2022-09-26T18:13:54.541Z,3.38
2022-09-26T18:16:22.690Z,3.65
2022-09-26T18:18:53.173Z,3.33
2022-09-26T18:21:20.912Z,3.33
2022-09-26T18:23:56.950Z,4.47
2022-09-26T18:26:50.200Z,3.83
2022-09-26T18:29:27.946Z,3.50
2022-09-26T18:31:56.167Z,2.30
2022-09-26T18:34:23.383Z,2.33
2022-09-26T18:36:51.988Z,2.55
2022-09-26T18:39:18.958Z,2.50
2022-09-26T18:41:48.353Z,2.45
2022-09-26T18:44:17.912Z,3.60
2022-09-26T18:46:46.790Z,3.13
2022-09-26T18:49:14.979Z,2.30
2022-09-26T18:51:42.000Z,2.15
2022-09-26T18:54:17.636Z,2.30
2022-09-26T18:57:03.495Z,2.50
2022-09-26T18:59:33.525Z,2.50
2022-09-26T19:02:02.056Z,2.25
2022-09-26T19:04:30.964Z,2.25
2022-09-26T19:07:04.813Z,2.38
2022-09-26T19:09:34.289Z,2.20
2022-09-26T19:12:04.705Z,1.95
2022-09-26T19:14:32.165Z,2.53
2022-09-26T19:16:59.382Z,2.42
2022-09-26T19:19:28.450Z,2.97
2022-09-26T19:22:11.268Z,2.03
2022-09-26T19:24:45.003Z,3.00
2022-09-26T19:27:33.163Z,2.60
2022-09-26T19:30:13.780Z,2.15
2022-09-26T19:32:44.504Z,2.13
2022-09-26T19:35:42.079Z,2.03
2022-09-26T19:38:22.817Z,2.20
2022-09-26T19:40:54.225Z,2.03
2022-09-26T19:43:23.561Z,1.88
2022-09-26T19:45:53.925Z,1.80
2022-09-26T19:48:23.291Z,1.63
2022-09-26T19:50:52.539Z,1.52
2022-09-26T19:53:22.468Z,2.25
2022-09-26T19:55:50.488Z,1.50
2022-09-26T19:58:17.514Z,1.60
2022-09-26T20:00:47.747Z,1.77
2022-09-26T20:03:25.442Z,1.40
2022-09-26T20:05:52.580Z,1.65
2022-09-26T20:08:25.072Z,1.25
2022-09-26T20:10:53.264Z,1.50
2022-09-26T20:13:20.429Z,2.03
2022-09-26T20:15:48.562Z,1.80
2022-09-26T20:18:22.121Z,1.48
2022-09-26T20:20:54.019Z,1.58
2022-09-26T20:23:26.354Z,1.92
2022-09-26T20:25:54.571Z,1.60
2022-09-26T20:28:21.747Z,2.00
2022-09-26T20:30:51.423Z,1.83
2022-09-26T20:33:22.302Z,1.80
2022-09-26T20:36:02.980Z,1.60
2022-09-26T20:38:45.823Z,1.63
2022-09-26T20:41:27.226Z,1.58
2022-09-26T20:44:01.387Z,2.10
2022-09-26T20:46:38.558Z,1.80
2022-09-26T20:49:12.691Z,1.70
2022-09-26T20:51:39.995Z,1.40
2022-09-26T20:54:19.089Z,1.50
2022-09-26T20:56:47.608Z,1.63
2022-09-26T20:59:15.034Z,1.35
2022-09-26T21:01:42.049Z,1.50
2022-09-26T21:04:14.370Z,1.20
2022-09-26T21:06:41.804Z,1.30
2022-09-26T21:09:19.959Z,2.00
2022-09-26T21:11:50.812Z,2.25
2022-09-26T21:14:18.383Z,1.90
2022-09-26T21:16:51.505Z,1.27
2022-09-26T21:19:21.759Z,1.67
2022-09-26T21:21:52.413Z,1.90
2022-09-26T21:24:30.901Z,1.60
2022-09-26T21:26:57.794Z,2.42
2022-09-26T21:29:24.726Z,1.53
2022-09-26T21:31:54.033Z,1.10
2022-09-26T21:34:23.979Z,1.33
2022-09-26T21:36:54.057Z,1.80
2022-09-26T21:39:21.516Z,1.42
2022-09-26T21:41:52.466Z,1.53
2022-09-26T21:44:27.774Z,1.52
2022-09-26T21:46:54.640Z,1.70
2022-09-26T21:49:21.494Z,1.50
2022-09-26T21:51:53.645Z,1.55
2022-09-26T21:54:28.588Z,1.40
2022-09-26T21:57:03.850Z,1.48
2022-09-26T21:59:31.596Z,1.40
2022-09-26T22:01:58.663Z,1.50
2022-09-26T22:04:31.724Z,1.45
2022-09-26T22:06:58.636Z,1.50
2022-09-26T22:09:25.858Z,1.85
2022-09-26T22:11:55.814Z,1.65
2022-09-26T22:14:22.646Z,1.48
2022-09-26T22:16:49.609Z,1.77
2022-09-26T22:19:16.886Z,1.50
2022-09-26T22:21:43.783Z,1.48
2022-09-26T22:24:11.440Z,1.30
2022-09-26T22:26:39.126Z,1.30
2022-09-26T22:29:06.165Z,1.60
2022-09-26T22:31:33.032Z,1.47
2022-09-26T22:34:00.398Z,1.00
2022-09-26T22:36:27.602Z,1.25
2022-09-26T22:38:54.901Z,1.00
2022-09-26T22:41:21.876Z,1.38
2022-09-26T22:43:49.327Z,1.00
2022-09-26T22:46:16.400Z,1.20
2022-09-26T22:48:46.166Z,1.10
2022-09-26T22:51:15.659Z,1.13
2022-09-26T22:53:43.729Z,1.20
2022-09-26T22:56:14.097Z,1.40
2022-09-26T22:58:44.073Z,1.20
2022-09-26T23:01:14.775Z,1.50
2022-09-26T23:03:42.152Z,0.90
2022-09-26T23:06:09.810Z,1.25
2022-09-26T23:08:37.548Z,1.30
2022-09-26T23:11:07.279Z,1.27
2022-09-26T23:13:35.560Z,1.33
2022-09-26T23:16:20.804Z,1.50
2022-09-26T23:18:49.534Z,1.05
2022-09-26T23:21:25.022Z,1.30
2022-09-26T23:23:55.100Z,1.25
2022-09-26T23:26:31.479Z,1.50
2022-09-26T23:28:59.591Z,1.10
2022-09-26T23:31:28.028Z,1.42
2022-09-26T23:33:55.469Z,1.23
2022-09-26T23:36:22.917Z,1.40
2022-09-26T23:38:50.111Z,1.40
2022-09-26T23:41:18.295Z,1.75
2022-09-26T23:43:46.548Z,1.35
2022-09-26T23:46:14.196Z,0.90
2022-09-26T23:48:41.483Z,1.20
2022-09-26T23:51:08.915Z,1.40
2022-09-26T23:53:36.036Z,1.40
2022-09-26T23:56:08.483Z,1.20
2022-09-26T23:58:37.114Z,1.10
